sensor_id;sensor_type;location;lat;lon;timestamp;P1;durP1;ratioP1;P2;durP2;ratioP2
79173;SDS011;68599;49.142;9.124;2023-04-26T00:01:30;7.60;;;4.10;;
79173;SDS011;68599;49.142;9.124;2023-04-26T00:03:56;9.30;;;4.10;;
79173;SDS011;68599;49.142;9.124;2023-04-26T00:06:23;8.00;;;3.50;;
79173;SDS011;68599;49.142;9.124;2023-04-26T00:08:50;6.10;;;2.90;;
79173;SDS011;68599;49.142;9.124;2023-04-26T00:11:17;9.90;;;3.30;;
79173;SDS011;68599;49.142;9.124;2023-04-26T00:13:43;9.20;;;3.40;;
79173;SDS011;68599;49.142;9.124;2023-04-26T00:16:10;7.90;;;3.80;;
79173;SDS011;68599;49.142;9.124;2023-04-26T00:18:36;8.30;;;3.90;;
79173;SDS011;68599;49.142;9.124;2023-04-26T00:21:03;8.70;;;4.30;;
79173;SDS011;68599;49.142;9.124;2023-04-26T00:23:29;8.00;;;3.50;;
79173;SDS011;68599;49.142;9.124;2023-04-26T00:25:56;11.50;;;4.10;;
79173;SDS011;68599;49.142;9.124;2023-04-26T00:28:22;8.50;;;3.10;;
79173;SDS011;68599;49.142;9.124;2023-04-26T00:30:49;10.20;;;4.10;;
79173;SDS011;68599;49.142;9.124;2023-04-26T00:33:16;9.20;;;3.90;;
79173;SDS011;68599;49.142;9.124;2023-04-26T00:35:42;8.30;;;3.50;;
79173;SDS011;68599;49.142;9.124;2023-04-26T00:38:09;10.30;;;4.40;;
79173;SDS011;68599;49.142;9.124;2023-04-26T00:40:36;7.40;;;3.50;;
79173;SDS011;68599;49.142;9.124;2023-04-26T00:43:02;11.40;;;3.40;;
79173;SDS011;68599;49.142;9.124;2023-04-26T00:45:29;7.70;;;3.60;;
79173;SDS011;68599;49.142;9.124;2023-04-26T00:47:57;9.40;;;3.70;;
79173;SDS011;68599;49.142;9.124;2023-04-26T00:50:25;8.10;;;3.60;;
79173;SDS011;68599;49.142;9.124;2023-04-26T00:52:51;9.60;;;3.60;;
79173;SDS011;68599;49.142;9.124;2023-04-26T00:55:19;8.00;;;3.80;;
79173;SDS011;68599;49.142;9.124;2023-04-26T00:57:47;7.60;;;3.40;;
79173;SDS011;68599;49.142;9.124;2023-04-26T01:00:14;7.10;;;3.50;;
79173;SDS011;68599;49.142;9.124;2023-04-26T01:02:41;9.60;;;3.70;;
79173;SDS011;68599;49.142;9.124;2023-04-26T01:05:08;9.80;;;4.10;;
79173;SDS011;68599;49.142;9.124;2023-04-26T01:07:35;9.20;;;3.80;;
79173;SDS011;68599;49.142;9.124;2023-04-26T01:10:04;10.80;;;3.90;;
79173;SDS011;68599;49.142;9.124;2023-04-26T01:12:31;11.70;;;3.40;;
79173;SDS011;68599;49.142;9.124;2023-04-26T01:14:58;8.00;;;3.40;;
79173;SDS011;68599;49.142;9.124;2023-04-26T01:17:25;6.40;;;3.70;;
79173;SDS011;68599;49.142;9.124;2023-04-26T01:19:52;6.80;;;3.50;;
79173;SDS011;68599;49.142;9.124;2023-04-26T01:22:18;9.30;;;4.20;;
79173;SDS011;68599;49.142;9.124;2023-04-26T01:24:46;7.10;;;2.90;;
79173;SDS011;68599;49.142;9.124;2023-04-26T01:27:15;8.80;;;4.30;;
79173;SDS011;68599;49.142;9.124;2023-04-26T01:29:42;7.50;;;3.30;;
79173;SDS011;68599;49.142;9.124;2023-04-26T01:32:09;10.00;;;3.80;;
79173;SDS011;68599;49.142;9.124;2023-04-26T01:34:37;5.00;;;2.90;;
79173;SDS011;68599;49.142;9.124;2023-04-26T01:37:03;6.80;;;3.40;;
79173;SDS011;68599;49.142;9.124;2023-04-26T01:39:30;10.60;;;4.40;;
79173;SDS011;68599;49.142;9.124;2023-04-26T01:41:56;8.70;;;3.90;;
79173;SDS011;68599;49.142;9.124;2023-04-26T01:44:26;10.00;;;4.20;;
79173;SDS011;68599;49.142;9.124;2023-04-26T01:46:52;6.90;;;3.50;;
79173;SDS011;68599;49.142;9.124;2023-04-26T01:49:19;9.60;;;3.60;;
79173;SDS011;68599;49.142;9.124;2023-04-26T01:51:45;6.60;;;3.10;;
79173;SDS011;68599;49.142;9.124;2023-04-26T01:54:12;11.50;;;4.30;;
79173;SDS011;68599;49.142;9.124;2023-04-26T01:56:39;9.10;;;3.40;;
79173;SDS011;68599;49.142;9.124;2023-04-26T01:59:05;8.90;;;3.80;;
79173;SDS011;68599;49.142;9.124;2023-04-26T02:01:32;7.90;;;3.60;;
79173;SDS011;68599;49.142;9.124;2023-04-26T02:03:58;8.40;;;3.50;;
79173;SDS011;68599;49.142;9.124;2023-04-26T02:06:25;7.70;;;3.40;;
79173;SDS011;68599;49.142;9.124;2023-04-26T02:08:51;6.90;;;3.20;;
79173;SDS011;68599;49.142;9.124;2023-04-26T02:11:19;6.60;;;2.30;;
79173;SDS011;68599;49.142;9.124;2023-04-26T02:13:45;5.70;;;3.10;;
79173;SDS011;68599;49.142;9.124;2023-04-26T02:16:12;5.00;;;2.80;;
79173;SDS011;68599;49.142;9.124;2023-04-26T02:18:41;6.80;;;3.40;;
79173;SDS011;68599;49.142;9.124;2023-04-26T02:21:09;9.30;;;3.70;;
79173;SDS011;68599;49.142;9.124;2023-04-26T02:23:36;10.00;;;4.30;;
79173;SDS011;68599;49.142;9.124;2023-04-26T02:26:04;6.80;;;3.20;;
79173;SDS011;68599;49.142;9.124;2023-04-26T02:28:30;10.60;;;3.70;;
79173;SDS011;68599;49.142;9.124;2023-04-26T02:30:57;11.10;;;4.60;;
79173;SDS011;68599;49.142;9.124;2023-04-26T02:33:24;8.00;;;3.60;;
79173;SDS011;68599;49.142;9.124;2023-04-26T02:35:50;7.20;;;3.20;;
79173;SDS011;68599;49.142;9.124;2023-04-26T02:38:17;7.20;;;3.10;;
79173;SDS011;68599;49.142;9.124;2023-04-26T02:40:43;7.40;;;2.80;;
79173;SDS011;68599;49.142;9.124;2023-04-26T02:43:10;6.80;;;3.30;;
79173;SDS011;68599;49.142;9.124;2023-04-26T02:45:43;7.90;;;3.30;;
79173;SDS011;68599;49.142;9.124;2023-04-26T02:48:09;5.90;;;3.20;;
79173;SDS011;68599;49.142;9.124;2023-04-26T02:50:36;6.10;;;3.40;;
79173;SDS011;68599;49.142;9.124;2023-04-26T02:53:02;9.90;;;3.90;;
79173;SDS011;68599;49.142;9.124;2023-04-26T02:55:29;7.10;;;4.00;;
79173;SDS011;68599;49.142;9.124;2023-04-26T02:57:56;8.90;;;4.20;;
79173;SDS011;68599;49.142;9.124;2023-04-26T03:00:22;9.50;;;5.20;;
79173;SDS011;68599;49.142;9.124;2023-04-26T03:02:50;16.70;;;5.80;;
79173;SDS011;68599;49.142;9.124;2023-04-26T03:05:17;12.90;;;6.10;;
79173;SDS011;68599;49.142;9.124;2023-04-26T03:07:45;14.10;;;5.60;;
79173;SDS011;68599;49.142;9.124;2023-04-26T03:10:11;11.90;;;4.90;;
79173;SDS011;68599;49.142;9.124;2023-04-26T03:12:38;12.00;;;5.50;;
79173;SDS011;68599;49.142;9.124;2023-04-26T03:15:04;10.60;;;5.20;;
79173;SDS011;68599;49.142;9.124;2023-04-26T03:17:31;14.60;;;6.00;;
79173;SDS011;68599;49.142;9.124;2023-04-26T03:19:58;15.60;;;6.00;;
79173;SDS011;68599;49.142;9.124;2023-04-26T03:22:27;11.50;;;5.50;;
79173;SDS011;68599;49.142;9.124;2023-04-26T03:24:54;10.20;;;4.40;;
79173;SDS011;68599;49.142;9.124;2023-04-26T03:27:20;10.40;;;4.50;;
79173;SDS011;68599;49.142;9.124;2023-04-26T03:29:47;11.90;;;5.40;;
79173;SDS011;68599;49.142;9.124;2023-04-26T03:32:13;9.10;;;4.40;;
79173;SDS011;68599;49.142;9.124;2023-04-26T03:34:40;17.00;;;5.90;;
79173;SDS011;68599;49.142;9.124;2023-04-26T03:37:07;16.90;;;6.50;;
79173;SDS011;68599;49.142;9.124;2023-04-26T03:39:33;18.70;;;6.50;;
79173;SDS011;68599;49.142;9.124;2023-04-26T03:42:00;13.40;;;5.50;;
79173;SDS011;68599;49.142;9.124;2023-04-26T03:44:27;12.20;;;5.30;;
79173;SDS011;68599;49.142;9.124;2023-04-26T03:46:56;11.20;;;5.60;;
79173;SDS011;68599;49.142;9.124;2023-04-26T03:49:22;12.20;;;5.00;;
79173;SDS011;68599;49.142;9.124;2023-04-26T03:51:49;9.70;;;4.80;;
79173;SDS011;68599;49.142;9.124;2023-04-26T03:54:17;10.00;;;4.50;;
79173;SDS011;68599;49.142;9.124;2023-04-26T03:56:43;8.80;;;4.00;;
79173;SDS011;68599;49.142;9.124;2023-04-26T03:59:10;11.60;;;5.20;;
79173;SDS011;68599;49.142;9.124;2023-04-26T04:01:37;7.20;;;3.10;;
79173;SDS011;68599;49.142;9.124;2023-04-26T04:04:03;6.60;;;3.40;;
79173;SDS011;68599;49.142;9.124;2023-04-26T04:06:30;11.10;;;5.20;;
79173;SDS011;68599;49.142;9.124;2023-04-26T04:08:58;12.10;;;6.10;;
79173;SDS011;68599;49.142;9.124;2023-04-26T04:11:24;12.30;;;5.10;;
79173;SDS011;68599;49.142;9.124;2023-04-26T04:13:54;13.30;;;5.80;;
79173;SDS011;68599;49.142;9.124;2023-04-26T04:16:21;11.60;;;4.90;;
79173;SDS011;68599;49.142;9.124;2023-04-26T04:18:48;10.50;;;4.80;;
79173;SDS011;68599;49.142;9.124;2023-04-26T04:21:14;9.10;;;4.60;;
79173;SDS011;68599;49.142;9.124;2023-04-26T04:23:41;9.40;;;4.30;;
79173;SDS011;68599;49.142;9.124;2023-04-26T04:28:38;6.10;;;3.10;;
79173;SDS011;68599;49.142;9.124;2023-04-26T04:31:07;9.10;;;4.10;;
79173;SDS011;68599;49.142;9.124;2023-04-26T04:33:36;7.40;;;3.90;;
79173;SDS011;68599;49.142;9.124;2023-04-26T04:36:03;6.50;;;3.60;;
79173;SDS011;68599;49.142;9.124;2023-04-26T04:38:29;8.40;;;4.60;;
79173;SDS011;68599;49.142;9.124;2023-04-26T04:40:56;6.40;;;3.20;;
79173;SDS011;68599;49.142;9.124;2023-04-26T04:43:23;9.20;;;4.70;;
79173;SDS011;68599;49.142;9.124;2023-04-26T04:45:50;9.00;;;4.70;;
79173;SDS011;68599;49.142;9.124;2023-04-26T04:48:16;8.40;;;4.60;;
79173;SDS011;68599;49.142;9.124;2023-04-26T04:50:43;8.00;;;3.90;;
79173;SDS011;68599;49.142;9.124;2023-04-26T04:53:10;8.70;;;4.40;;
79173;SDS011;68599;49.142;9.124;2023-04-26T04:55:39;9.10;;;4.00;;
79173;SDS011;68599;49.142;9.124;2023-04-26T04:58:06;5.90;;;3.40;;
79173;SDS011;68599;49.142;9.124;2023-04-26T05:00:32;8.10;;;4.10;;
79173;SDS011;68599;49.142;9.124;2023-04-26T05:02:59;7.80;;;4.10;;
79173;SDS011;68599;49.142;9.124;2023-04-26T05:05:26;7.20;;;3.90;;
79173;SDS011;68599;49.142;9.124;2023-04-26T05:07:53;7.60;;;3.80;;
79173;SDS011;68599;49.142;9.124;2023-04-26T05:12:47;7.50;;;3.40;;
79173;SDS011;68599;49.142;9.124;2023-04-26T05:15:13;8.50;;;4.20;;
79173;SDS011;68599;49.142;9.124;2023-04-26T05:17:40;5.70;;;3.40;;
79173;SDS011;68599;49.142;9.124;2023-04-26T05:20:07;6.00;;;3.50;;
79173;SDS011;68599;49.142;9.124;2023-04-26T05:22:34;6.20;;;2.90;;
79173;SDS011;68599;49.142;9.124;2023-04-26T05:25:02;5.70;;;3.10;;
79173;SDS011;68599;49.142;9.124;2023-04-26T05:27:30;6.50;;;3.60;;
79173;SDS011;68599;49.142;9.124;2023-04-26T05:29:56;6.40;;;3.70;;
79173;SDS011;68599;49.142;9.124;2023-04-26T05:32:23;5.50;;;2.80;;
79173;SDS011;68599;49.142;9.124;2023-04-26T05:34:49;8.80;;;3.40;;
79173;SDS011;68599;49.142;9.124;2023-04-26T05:37:16;7.40;;;3.50;;
79173;SDS011;68599;49.142;9.124;2023-04-26T05:39:42;8.50;;;4.10;;
79173;SDS011;68599;49.142;9.124;2023-04-26T05:42:09;8.60;;;4.20;;
79173;SDS011;68599;49.142;9.124;2023-04-26T05:44:36;8.30;;;4.10;;
79173;SDS011;68599;49.142;9.124;2023-04-26T05:47:02;6.90;;;4.20;;
79173;SDS011;68599;49.142;9.124;2023-04-26T05:49:29;7.60;;;4.10;;
79173;SDS011;68599;49.142;9.124;2023-04-26T05:51:57;5.40;;;2.60;;
79173;SDS011;68599;49.142;9.124;2023-04-26T05:54:25;6.20;;;3.20;;
79173;SDS011;68599;49.142;9.124;2023-04-26T05:56:52;3.60;;;2.40;;
79173;SDS011;68599;49.142;9.124;2023-04-26T05:59:19;5.10;;;2.80;;
79173;SDS011;68599;49.142;9.124;2023-04-26T06:01:46;5.40;;;3.00;;
79173;SDS011;68599;49.142;9.124;2023-04-26T06:04:13;7.10;;;3.20;;
79173;SDS011;68599;49.142;9.124;2023-04-26T06:06:40;5.10;;;3.30;;
79173;SDS011;68599;49.142;9.124;2023-04-26T06:09:06;6.70;;;3.40;;
79173;SDS011;68599;49.142;9.124;2023-04-26T06:11:33;7.10;;;3.20;;
79173;SDS011;68599;49.142;9.124;2023-04-26T06:14:00;6.30;;;3.50;;
79173;SDS011;68599;49.142;9.124;2023-04-26T06:16:27;4.70;;;2.90;;
79173;SDS011;68599;49.142;9.124;2023-04-26T06:18:53;5.40;;;3.30;;
79173;SDS011;68599;49.142;9.124;2023-04-26T06:21:20;6.50;;;3.10;;
79173;SDS011;68599;49.142;9.124;2023-04-26T06:23:46;5.40;;;3.20;;
79173;SDS011;68599;49.142;9.124;2023-04-26T06:26:13;7.60;;;3.90;;
79173;SDS011;68599;49.142;9.124;2023-04-26T06:28:39;8.30;;;3.70;;
79173;SDS011;68599;49.142;9.124;2023-04-26T06:31:07;8.20;;;3.60;;
79173;SDS011;68599;49.142;9.124;2023-04-26T06:33:34;7.00;;;4.00;;
79173;SDS011;68599;49.142;9.124;2023-04-26T06:36:00;7.00;;;3.40;;
79173;SDS011;68599;49.142;9.124;2023-04-26T06:38:27;7.60;;;3.90;;
79173;SDS011;68599;49.142;9.124;2023-04-26T06:40:54;8.40;;;4.50;;
79173;SDS011;68599;49.142;9.124;2023-04-26T06:43:20;8.90;;;4.40;;
79173;SDS011;68599;49.142;9.124;2023-04-26T06:45:47;7.20;;;4.60;;
79173;SDS011;68599;49.142;9.124;2023-04-26T06:48:14;8.40;;;4.50;;
79173;SDS011;68599;49.142;9.124;2023-04-26T06:50:41;8.20;;;4.20;;
79173;SDS011;68599;49.142;9.124;2023-04-26T06:53:07;7.20;;;4.30;;
79173;SDS011;68599;49.142;9.124;2023-04-26T06:55:34;3.50;;;2.50;;
79173;SDS011;68599;49.142;9.124;2023-04-26T06:58:00;6.50;;;3.50;;
79173;SDS011;68599;49.142;9.124;2023-04-26T07:00:27;9.10;;;4.30;;
79173;SDS011;68599;49.142;9.124;2023-04-26T07:02:55;7.00;;;3.20;;
79173;SDS011;68599;49.142;9.124;2023-04-26T07:05:22;7.80;;;3.60;;
79173;SDS011;68599;49.142;9.124;2023-04-26T07:07:49;7.70;;;4.20;;
79173;SDS011;68599;49.142;9.124;2023-04-26T07:10:15;8.10;;;3.90;;
79173;SDS011;68599;49.142;9.124;2023-04-26T07:12:42;8.10;;;3.80;;
79173;SDS011;68599;49.142;9.124;2023-04-26T07:15:09;8.70;;;3.60;;
79173;SDS011;68599;49.142;9.124;2023-04-26T07:17:36;6.80;;;4.00;;
79173;SDS011;68599;49.142;9.124;2023-04-26T07:20:03;6.20;;;2.00;;
79173;SDS011;68599;49.142;9.124;2023-04-26T07:24:56;4.30;;;1.90;;
79173;SDS011;68599;49.142;9.124;2023-04-26T07:27:23;3.90;;;1.90;;
79173;SDS011;68599;49.142;9.124;2023-04-26T07:29:53;8.40;;;2.40;;
79173;SDS011;68599;49.142;9.124;2023-04-26T07:32:21;3.40;;;1.80;;
79173;SDS011;68599;49.142;9.124;2023-04-26T07:34:48;8.00;;;2.40;;
79173;SDS011;68599;49.142;9.124;2023-04-26T07:37:15;3.70;;;2.30;;
79173;SDS011;68599;49.142;9.124;2023-04-26T07:39:42;5.90;;;2.20;;
79173;SDS011;68599;49.142;9.124;2023-04-26T07:42:08;7.30;;;2.80;;
79173;SDS011;68599;49.142;9.124;2023-04-26T07:44:35;5.90;;;2.80;;
79173;SDS011;68599;49.142;9.124;2023-04-26T07:47:01;4.30;;;1.80;;
79173;SDS011;68599;49.142;9.124;2023-04-26T07:49:28;5.20;;;2.80;;
79173;SDS011;68599;49.142;9.124;2023-04-26T07:51:55;8.00;;;2.90;;
79173;SDS011;68599;49.142;9.124;2023-04-26T07:54:23;6.20;;;2.30;;
79173;SDS011;68599;49.142;9.124;2023-04-26T07:56:49;5.50;;;2.50;;
79173;SDS011;68599;49.142;9.124;2023-04-26T07:59:16;10.80;;;3.00;;
79173;SDS011;68599;49.142;9.124;2023-04-26T08:01:42;5.70;;;2.50;;
79173;SDS011;68599;49.142;9.124;2023-04-26T08:04:09;7.30;;;3.10;;
79173;SDS011;68599;49.142;9.124;2023-04-26T08:06:36;4.70;;;2.70;;
79173;SDS011;68599;49.142;9.124;2023-04-26T08:09:04;4.50;;;2.50;;
79173;SDS011;68599;49.142;9.124;2023-04-26T08:11:30;5.40;;;2.50;;
79173;SDS011;68599;49.142;9.124;2023-04-26T08:13:58;4.10;;;2.20;;
79173;SDS011;68599;49.142;9.124;2023-04-26T08:16:24;3.30;;;1.50;;
79173;SDS011;68599;49.142;9.124;2023-04-26T08:18:51;4.80;;;2.40;;
79173;SDS011;68599;49.142;9.124;2023-04-26T08:21:18;6.00;;;2.30;;
79173;SDS011;68599;49.142;9.124;2023-04-26T08:23:44;4.00;;;1.70;;
79173;SDS011;68599;49.142;9.124;2023-04-26T08:26:11;4.10;;;2.20;;
79173;SDS011;68599;49.142;9.124;2023-04-26T08:28:38;3.80;;;2.20;;
79173;SDS011;68599;49.142;9.124;2023-04-26T08:31:04;4.90;;;2.30;;
79173;SDS011;68599;49.142;9.124;2023-04-26T08:33:31;4.90;;;2.20;;
79173;SDS011;68599;49.142;9.124;2023-04-26T08:35:58;6.30;;;2.00;;
79173;SDS011;68599;49.142;9.124;2023-04-26T08:38:26;5.60;;;1.90;;
79173;SDS011;68599;49.142;9.124;2023-04-26T08:40:55;3.70;;;2.00;;
79173;SDS011;68599;49.142;9.124;2023-04-26T08:43:27;2.70;;;1.30;;
79173;SDS011;68599;49.142;9.124;2023-04-26T08:45:54;4.10;;;1.90;;
79173;SDS011;68599;49.142;9.124;2023-04-26T08:48:24;5.40;;;2.60;;
79173;SDS011;68599;49.142;9.124;2023-04-26T08:50:53;7.70;;;2.50;;
79173;SDS011;68599;49.142;9.124;2023-04-26T08:53:20;4.10;;;2.00;;
79173;SDS011;68599;49.142;9.124;2023-04-26T08:55:47;5.00;;;2.00;;
79173;SDS011;68599;49.142;9.124;2023-04-26T08:58:15;5.70;;;2.20;;
79173;SDS011;68599;49.142;9.124;2023-04-26T09:00:43;6.40;;;2.00;;
79173;SDS011;68599;49.142;9.124;2023-04-26T09:03:13;6.50;;;2.50;;
79173;SDS011;68599;49.142;9.124;2023-04-26T09:05:40;4.90;;;2.30;;
79173;SDS011;68599;49.142;9.124;2023-04-26T09:08:17;5.20;;;1.80;;
79173;SDS011;68599;49.142;9.124;2023-04-26T09:10:44;4.90;;;2.20;;
79173;SDS011;68599;49.142;9.124;2023-04-26T09:13:11;6.20;;;2.30;;
79173;SDS011;68599;49.142;9.124;2023-04-26T09:15:38;5.30;;;1.60;;
79173;SDS011;68599;49.142;9.124;2023-04-26T09:18:15;4.10;;;1.70;;
79173;SDS011;68599;49.142;9.124;2023-04-26T09:21:06;5.80;;;2.10;;
79173;SDS011;68599;49.142;9.124;2023-04-26T09:23:33;5.30;;;1.90;;
79173;SDS011;68599;49.142;9.124;2023-04-26T09:28:46;3.50;;;1.60;;
79173;SDS011;68599;49.142;9.124;2023-04-26T09:34:04;5.00;;;1.90;;
79173;SDS011;68599;49.142;9.124;2023-04-26T09:36:31;5.10;;;2.20;;
79173;SDS011;68599;49.142;9.124;2023-04-26T09:38:58;10.60;;;2.20;;
79173;SDS011;68599;49.142;9.124;2023-04-26T09:41:40;4.70;;;2.30;;
79173;SDS011;68599;49.142;9.124;2023-04-26T09:44:19;4.10;;;1.80;;
79173;SDS011;68599;49.142;9.124;2023-04-26T09:49:47;4.00;;;2.20;;
79173;SDS011;68599;49.142;9.124;2023-04-26T09:52:17;7.80;;;2.20;;
79173;SDS011;68599;49.142;9.124;2023-04-26T09:57:18;3.70;;;1.70;;
79173;SDS011;68599;49.142;9.124;2023-04-26T09:59:46;3.60;;;1.70;;
79173;SDS011;68599;49.142;9.124;2023-04-26T10:02:24;4.80;;;1.80;;
79173;SDS011;68599;49.142;9.124;2023-04-26T10:04:53;5.30;;;2.00;;
79173;SDS011;68599;49.142;9.124;2023-04-26T10:07:22;3.70;;;1.40;;
79173;SDS011;68599;49.142;9.124;2023-04-26T10:09:50;1.00;;;0.60;;
79173;SDS011;68599;49.142;9.124;2023-04-26T10:12:18;4.00;;;1.70;;
79173;SDS011;68599;49.142;9.124;2023-04-26T10:14:45;6.20;;;1.80;;
79173;SDS011;68599;49.142;9.124;2023-04-26T10:17:12;5.60;;;1.60;;
79173;SDS011;68599;49.142;9.124;2023-04-26T10:19:42;3.60;;;1.50;;
79173;SDS011;68599;49.142;9.124;2023-04-26T10:22:11;5.70;;;1.80;;
79173;SDS011;68599;49.142;9.124;2023-04-26T10:24:43;3.40;;;1.50;;
79173;SDS011;68599;49.142;9.124;2023-04-26T10:27:11;3.60;;;1.70;;
79173;SDS011;68599;49.142;9.124;2023-04-26T10:32:22;6.90;;;1.80;;
79173;SDS011;68599;49.142;9.124;2023-04-26T10:40:30;7.00;;;1.30;;
79173;SDS011;68599;49.142;9.124;2023-04-26T10:45:34;3.50;;;1.60;;
79173;SDS011;68599;49.142;9.124;2023-04-26T10:48:17;7.30;;;2.00;;
79173;SDS011;68599;49.142;9.124;2023-04-26T10:59:06;4.30;;;1.80;;
79173;SDS011;68599;49.142;9.124;2023-04-26T11:01:53;5.30;;;1.80;;
79173;SDS011;68599;49.142;9.124;2023-04-26T11:04:19;5.60;;;1.70;;
79173;SDS011;68599;49.142;9.124;2023-04-26T11:06:48;4.50;;;1.80;;
79173;SDS011;68599;49.142;9.124;2023-04-26T11:12:10;4.10;;;1.30;;
79173;SDS011;68599;49.142;9.124;2023-04-26T11:14:42;5.90;;;1.80;;
79173;SDS011;68599;49.142;9.124;2023-04-26T11:17:09;5.00;;;1.70;;
79173;SDS011;68599;49.142;9.124;2023-04-26T11:19:35;3.80;;;1.70;;
79173;SDS011;68599;49.142;9.124;2023-04-26T11:22:02;5.70;;;1.80;;
79173;SDS011;68599;49.142;9.124;2023-04-26T11:24:33;5.40;;;1.70;;
79173;SDS011;68599;49.142;9.124;2023-04-26T11:27:07;4.70;;;1.50;;
79173;SDS011;68599;49.142;9.124;2023-04-26T11:29:35;4.90;;;1.50;;
79173;SDS011;68599;49.142;9.124;2023-04-26T11:32:02;6.20;;;1.60;;
79173;SDS011;68599;49.142;9.124;2023-04-26T11:34:33;3.00;;;1.20;;
79173;SDS011;68599;49.142;9.124;2023-04-26T11:37:01;5.70;;;1.50;;
79173;SDS011;68599;49.142;9.124;2023-04-26T11:39:30;2.00;;;1.10;;
79173;SDS011;68599;49.142;9.124;2023-04-26T11:44:39;3.80;;;1.40;;
79173;SDS011;68599;49.142;9.124;2023-04-26T11:47:06;7.40;;;3.30;;
79173;SDS011;68599;49.142;9.124;2023-04-26T11:49:36;20.40;;;10.00;;
79173;SDS011;68599;49.142;9.124;2023-04-26T11:52:04;3.40;;;1.60;;
79173;SDS011;68599;49.142;9.124;2023-04-26T11:54:33;2.80;;;1.50;;
79173;SDS011;68599;49.142;9.124;2023-04-26T11:57:11;3.40;;;1.30;;
79173;SDS011;68599;49.142;9.124;2023-04-26T11:59:42;5.20;;;1.90;;
79173;SDS011;68599;49.142;9.124;2023-04-26T12:02:09;4.50;;;1.60;;
79173;SDS011;68599;49.142;9.124;2023-04-26T12:04:37;5.30;;;2.00;;
79173;SDS011;68599;49.142;9.124;2023-04-26T12:07:07;5.10;;;1.70;;
79173;SDS011;68599;49.142;9.124;2023-04-26T12:09:34;2.10;;;1.20;;
79173;SDS011;68599;49.142;9.124;2023-04-26T12:12:07;3.80;;;1.70;;
79173;SDS011;68599;49.142;9.124;2023-04-26T12:14:35;4.40;;;1.80;;
79173;SDS011;68599;49.142;9.124;2023-04-26T12:17:04;4.30;;;1.50;;
79173;SDS011;68599;49.142;9.124;2023-04-26T12:19:32;4.20;;;1.70;;
79173;SDS011;68599;49.142;9.124;2023-04-26T12:22:00;5.50;;;2.20;;
79173;SDS011;68599;49.142;9.124;2023-04-26T12:24:27;9.10;;;2.20;;
79173;SDS011;68599;49.142;9.124;2023-04-26T12:26:55;4.40;;;2.60;;
79173;SDS011;68599;49.142;9.124;2023-04-26T12:29:22;5.90;;;1.90;;
79173;SDS011;68599;49.142;9.124;2023-04-26T12:31:49;2.90;;;1.60;;
79173;SDS011;68599;49.142;9.124;2023-04-26T12:34:16;3.30;;;1.80;;
79173;SDS011;68599;49.142;9.124;2023-04-26T12:36:42;3.40;;;1.90;;
79173;SDS011;68599;49.142;9.124;2023-04-26T12:39:10;3.40;;;1.80;;
79173;SDS011;68599;49.142;9.124;2023-04-26T12:41:39;3.60;;;1.90;;
79173;SDS011;68599;49.142;9.124;2023-04-26T12:44:06;3.40;;;1.50;;
79173;SDS011;68599;49.142;9.124;2023-04-26T12:46:34;3.50;;;1.40;;
79173;SDS011;68599;49.142;9.124;2023-04-26T12:49:02;3.80;;;1.80;;
79173;SDS011;68599;49.142;9.124;2023-04-26T12:51:29;5.70;;;1.90;;
79173;SDS011;68599;49.142;9.124;2023-04-26T12:53:57;4.60;;;1.80;;
79173;SDS011;68599;49.142;9.124;2023-04-26T12:56:23;3.80;;;1.60;;
79173;SDS011;68599;49.142;9.124;2023-04-26T12:58:50;2.80;;;1.60;;
79173;SDS011;68599;49.142;9.124;2023-04-26T13:01:17;5.40;;;1.90;;
79173;SDS011;68599;49.142;9.124;2023-04-26T13:03:44;6.00;;;2.10;;
79173;SDS011;68599;49.142;9.124;2023-04-26T13:06:11;4.90;;;2.10;;
79173;SDS011;68599;49.142;9.124;2023-04-26T13:12:18;3.50;;;1.70;;
79173;SDS011;68599;49.142;9.124;2023-04-26T13:14:45;3.60;;;1.60;;
79173;SDS011;68599;49.142;9.124;2023-04-26T13:17:11;4.20;;;1.80;;
79173;SDS011;68599;49.142;9.124;2023-04-26T13:19:38;3.20;;;1.80;;
79173;SDS011;68599;49.142;9.124;2023-04-26T13:22:04;5.20;;;2.00;;
79173;SDS011;68599;49.142;9.124;2023-04-26T13:24:33;4.40;;;2.20;;
79173;SDS011;68599;49.142;9.124;2023-04-26T13:27:00;6.70;;;2.10;;
79173;SDS011;68599;49.142;9.124;2023-04-26T13:29:26;7.10;;;2.20;;
79173;SDS011;68599;49.142;9.124;2023-04-26T13:34:19;5.20;;;2.40;;
79173;SDS011;68599;49.142;9.124;2023-04-26T13:36:46;5.10;;;2.20;;
79173;SDS011;68599;49.142;9.124;2023-04-26T13:39:13;4.10;;;1.70;;
79173;SDS011;68599;49.142;9.124;2023-04-26T13:44:06;4.40;;;1.80;;
79173;SDS011;68599;49.142;9.124;2023-04-26T13:46:33;4.30;;;2.20;;
79173;SDS011;68599;49.142;9.124;2023-04-26T13:48:59;5.20;;;2.70;;
79173;SDS011;68599;49.142;9.124;2023-04-26T13:51:26;3.30;;;2.00;;
79173;SDS011;68599;49.142;9.124;2023-04-26T13:53:55;4.10;;;1.60;;
79173;SDS011;68599;49.142;9.124;2023-04-26T13:56:21;4.00;;;2.00;;
79173;SDS011;68599;49.142;9.124;2023-04-26T13:58:53;5.10;;;1.60;;
79173;SDS011;68599;49.142;9.124;2023-04-26T14:01:21;4.70;;;1.90;;
79173;SDS011;68599;49.142;9.124;2023-04-26T14:03:48;5.50;;;2.40;;
79173;SDS011;68599;49.142;9.124;2023-04-26T14:06:16;3.90;;;1.50;;
79173;SDS011;68599;49.142;9.124;2023-04-26T14:08:42;4.20;;;1.80;;
79173;SDS011;68599;49.142;9.124;2023-04-26T14:11:08;4.50;;;1.90;;
79173;SDS011;68599;49.142;9.124;2023-04-26T14:13:36;3.60;;;1.80;;
79173;SDS011;68599;49.142;9.124;2023-04-26T14:16:02;6.00;;;2.00;;
79173;SDS011;68599;49.142;9.124;2023-04-26T14:20:55;4.10;;;1.90;;
79173;SDS011;68599;49.142;9.124;2023-04-26T14:23:22;3.70;;;1.70;;
79173;SDS011;68599;49.142;9.124;2023-04-26T14:25:52;3.90;;;1.80;;
79173;SDS011;68599;49.142;9.124;2023-04-26T14:28:18;3.30;;;1.80;;
79173;SDS011;68599;49.142;9.124;2023-04-26T14:33:12;3.60;;;2.00;;
79173;SDS011;68599;49.142;9.124;2023-04-26T14:35:38;4.80;;;1.70;;
79173;SDS011;68599;49.142;9.124;2023-04-26T14:38:05;3.60;;;1.80;;
79173;SDS011;68599;49.142;9.124;2023-04-26T14:40:31;3.90;;;1.60;;
79173;SDS011;68599;49.142;9.124;2023-04-26T14:42:58;5.10;;;1.80;;
79173;SDS011;68599;49.142;9.124;2023-04-26T14:45:24;3.80;;;1.50;;
79173;SDS011;68599;49.142;9.124;2023-04-26T14:48:09;3.70;;;1.80;;
79173;SDS011;68599;49.142;9.124;2023-04-26T14:50:36;5.20;;;1.70;;
79173;SDS011;68599;49.142;9.124;2023-04-26T14:53:03;5.50;;;2.60;;
79173;SDS011;68599;49.142;9.124;2023-04-26T14:55:30;3.40;;;1.80;;
79173;SDS011;68599;49.142;9.124;2023-04-26T14:57:56;2.90;;;1.70;;
79173;SDS011;68599;49.142;9.124;2023-04-26T15:02:50;3.20;;;1.70;;
79173;SDS011;68599;49.142;9.124;2023-04-26T15:05:17;6.00;;;1.40;;
79173;SDS011;68599;49.142;9.124;2023-04-26T15:07:44;4.50;;;1.80;;
79173;SDS011;68599;49.142;9.124;2023-04-26T15:10:10;3.70;;;1.60;;
79173;SDS011;68599;49.142;9.124;2023-04-26T15:12:37;5.90;;;1.60;;
79173;SDS011;68599;49.142;9.124;2023-04-26T15:15:03;3.50;;;1.50;;
79173;SDS011;68599;49.142;9.124;2023-04-26T15:17:31;4.10;;;1.70;;
79173;SDS011;68599;49.142;9.124;2023-04-26T15:19:59;4.10;;;2.00;;
79173;SDS011;68599;49.142;9.124;2023-04-26T15:22:26;4.10;;;1.60;;
79173;SDS011;68599;49.142;9.124;2023-04-26T15:24:53;4.20;;;1.60;;
79173;SDS011;68599;49.142;9.124;2023-04-26T15:27:19;4.80;;;1.60;;
79173;SDS011;68599;49.142;9.124;2023-04-26T15:29:46;4.40;;;1.50;;
79173;SDS011;68599;49.142;9.124;2023-04-26T15:32:13;2.00;;;1.10;;
79173;SDS011;68599;49.142;9.124;2023-04-26T15:34:46;3.80;;;1.40;;
79173;SDS011;68599;49.142;9.124;2023-04-26T15:37:12;2.50;;;1.30;;
79173;SDS011;68599;49.142;9.124;2023-04-26T15:39:39;5.80;;;1.60;;
79173;SDS011;68599;49.142;9.124;2023-04-26T15:42:05;3.50;;;1.40;;
79173;SDS011;68599;49.142;9.124;2023-04-26T15:44:32;3.50;;;1.40;;
79173;SDS011;68599;49.142;9.124;2023-04-26T15:46:59;3.90;;;1.40;;